Time;durP1;ratioP1;P1;durP2;ratioP2;P2;SDS_P1;SDS_P2;PMS_P1;PMS_P2;Temp;Humidity;BMP_temperature;BMP_pressure;BME280_temperature;BME280_humidity;BME280_pressure;Samples;Min_cycle;Max_cycle;Signal;HPM_P1;HPM_P2
2022/10/15 00:01:06;;;;;;;14.25;9.57;;;;;;;13.92;85.62;100363.34;5107899;28;20047;-29
2022/10/15 00:03:31;;;;;;;16.00;10.63;;;;;;;13.93;85.50;100360.41;5107951;28;20039;-28
2022/10/15 00:05:57;;;;;;;13.35;10.30;;;;;;;13.61;87.18;100350.03;5107810;28;20084;-28
2022/10/15 00:08:22;;;;;;;15.02;10.18;;;;;;;13.76;87.17;100367.53;5088533;28;20107;-28
2022/10/15 00:10:47;;;;;;;12.13;9.20;;;;;;;13.70;86.90;100349.69;5107764;28;20115;-29
2022/10/15 00:13:13;;;;;;;14.23;10.05;;;;;;;13.71;87.14;100356.69;5107829;28;20030;-29
2022/10/15 00:15:38;;;;;;;14.60;9.65;;;;;;;13.74;87.85;100362.41;5089240;28;20023;-29
2022/10/15 00:18:04;;;;;;;14.27;9.70;;;;;;;13.89;87.14;100361.94;5089386;28;20040;-28
2022/10/15 00:20:30;;;;;;;17.00;10.10;;;;;;;13.64;88.80;100357.59;5107926;28;20027;-27
2022/10/15 00:22:56;;;;;;;14.02;10.23;;;;;;;13.72;88.81;100358.31;5088758;28;20039;-28
2022/10/15 00:25:21;;;;;;;16.17;10.55;;;;;;;13.75;88.06;100331.03;5107611;28;20090;-28
2022/10/15 00:27:47;;;;;;;15.20;10.90;;;;;;;13.75;88.01;100347.97;5107341;28;20088;-27
2022/10/15 00:30:12;;;;;;;16.65;10.63;;;;;;;13.80;88.27;100355.31;5107563;28;20053;-28
2022/10/15 00:32:38;;;;;;;14.98;11.23;;;;;;;13.69;89.05;100353.41;5107183;28;20035;-29
2022/10/15 00:35:04;;;;;;;13.60;10.35;;;;;;;13.78;88.50;100352.03;5107373;28;20027;-34
2022/10/15 00:37:29;;;;;;;12.85;9.70;;;;;;;13.62;88.76;100337.47;5088367;28;20079;-27
2022/10/15 00:39:55;;;;;;;13.52;9.20;;;;;;;13.51;89.81;100335.59;5107348;28;20047;-27
2022/10/15 00:42:20;;;;;;;13.38;8.50;;;;;;;13.64;89.83;100346.88;5107294;28;20028;-30
2022/10/15 00:44:50;;;;;;;13.77;8.05;;;;;;;13.44;90.32;100331.16;5107151;28;20024;-29
2022/10/15 00:47:32;;;;;;;9.40;7.32;;;;;;;13.58;89.85;100326.38;5107142;28;20027;-30
2022/10/15 00:50:12;;;;;;;13.30;7.53;;;;;;;13.50;90.42;100345.47;5088891;28;20433;-28
2022/10/15 00:52:59;;;;;;;12.88;7.97;;;;;;;13.48;90.29;100330.69;5107078;28;20109;-29
2022/10/15 00:55:31;;;;;;;12.15;6.88;;;;;;;13.53;90.43;100350.38;5107138;28;20032;-28
2022/10/15 00:58:10;;;;;;;12.38;7.38;;;;;;;13.52;91.57;100354.09;5088928;28;20451;-28
2022/10/15 01:00:35;;;;;;;11.57;6.88;;;;;;;13.62;91.29;100348.97;5088312;28;20024;-27
2022/10/15 01:03:01;;;;;;;10.43;6.80;;;;;;;13.54;91.12;100333.25;5107418;28;20030;-29
2022/10/15 01:05:27;;;;;;;10.73;6.22;;;;;;;13.49;92.30;100343.84;5089001;28;20080;-29
2022/10/15 01:07:52;;;;;;;10.32;6.47;;;;;;;13.51;92.46;100339.09;5106990;28;20484;-27
2022/10/15 01:10:19;;;;;;;10.60;6.80;;;;;;;13.60;92.18;100350.28;5107206;28;20028;-28
2022/10/15 01:12:45;;;;;;;12.07;6.90;;;;;;;13.71;91.69;100346.78;5106643;28;20102;-29
2022/10/15 01:15:30;;;;;;;10.90;7.00;;;;;;;13.74;91.42;100350.88;5107206;28;20131;-28
2022/10/15 01:18:01;;;;;;;10.55;6.15;;;;;;;13.64;91.92;100336.16;5107270;28;20024;-29
2022/10/15 01:20:45;;;;;;;10.32;6.18;;;;;;;13.85;91.42;100353.56;5108264;28;20035;-27
2022/10/15 01:23:19;;;;;;;11.48;7.05;;;;;;;13.70;92.48;100341.66;5092684;28;20414;-28
2022/10/15 01:26:22;;;;;;;9.57;6.18;;;;;;;13.82;92.60;100355.88;5111272;28;20038;-29
2022/10/15 01:28:57;;;;;;;8.52;5.78;;;;;;;13.77;92.11;100339.66;5110910;28;20059;-28
2022/10/15 01:31:43;;;;;;;10.73;6.35;;;;;;;13.98;91.30;100352.50;5110965;28;20019;-29
2022/10/15 01:34:27;;;;;;;10.18;6.45;;;;;;;14.12;90.00;100354.91;5109650;28;20107;-29
2022/10/15 01:37:10;;;;;;;10.18;6.15;;;;;;;14.01;90.53;100335.94;5110902;28;20559;-28
2022/10/15 01:39:46;;;;;;;11.88;6.93;;;;;;;13.97;90.04;100326.72;5110633;28;20112;-30
2022/10/15 01:42:14;;;;;;;9.07;6.10;;;;;;;14.16;90.17;100345.34;5110580;28;20016;-28
2022/10/15 01:44:49;;;;;;;10.15;6.55;;;;;;;14.00;90.29;100347.72;5110440;28;20023;-30
2022/10/15 01:47:26;;;;;;;10.57;6.68;;;;;;;13.81;90.93;100324.75;5110795;28;20023;-29
2022/10/15 01:49:54;;;;;;;10.70;6.78;;;;;;;13.73;91.75;100325.09;5110723;28;20168;-31
2022/10/15 01:52:30;;;;;;;10.10;6.95;;;;;;;13.80;91.80;100344.56;5111095;28;20027;-29
2022/10/15 01:54:57;;;;;;;12.35;7.25;;;;;;;13.62;93.47;100332.91;5092030;28;20048;-31
2022/10/15 01:57:26;;;;;;;11.65;7.22;;;;;;;13.44;95.51;100343.72;5110637;28;20027;-29
2022/10/15 01:59:52;;;;;;;14.00;7.90;;;;;;;13.54;95.79;100337.81;5110391;28;20032;-29
2022/10/15 02:02:18;;;;;;;15.20;7.90;;;;;;;13.43;95.58;100326.03;5110403;28;20380;-27
2022/10/15 02:04:43;;;;;;;18.50;7.00;;;;;;;13.65;95.72;100343.16;5109947;28;20028;-30
2022/10/15 02:07:14;;;;;;;12.05;8.13;;;;;;;13.71;95.68;100343.28;5110021;28;20027;-29
2022/10/15 02:09:55;;;;;;;12.05;7.43;;;;;;;13.79;94.96;100342.94;5110352;28;20115;-28
2022/10/15 02:12:35;;;;;;;11.95;7.57;;;;;;;13.72;95.31;100352.97;5110462;28;20032;-29
2022/10/15 02:15:18;;;;;;;11.50;7.85;;;;;;;13.83;94.72;100344.09;5108718;28;20106;-27
2022/10/15 02:18:08;;;;;;;11.18;7.28;;;;;;;13.66;94.85;100318.00;5110225;28;20034;-31
2022/10/15 02:20:49;;;;;;;11.20;7.82;;;;;;;13.79;94.86;100345.59;5109990;28;20476;-27
2022/10/15 02:23:25;;;;;;;12.20;7.40;;;;;;;13.64;94.86;100325.44;5110246;28;20144;-29
2022/10/15 02:25:52;;;;;;;12.07;7.60;;;;;;;13.85;94.76;100342.00;5109874;28;20027;-28
2022/10/15 02:28:18;;;;;;;13.23;7.32;;;;;;;13.70;95.04;100333.63;5109777;28;20031;-30
2022/10/15 02:30:49;;;;;;;11.23;7.35;;;;;;;13.81;94.44;100340.84;5109564;28;20038;-29
2022/10/15 02:33:17;;;;;;;11.32;7.43;;;;;;;13.59;94.91;100311.94;5109754;28;20110;-28
2022/10/15 02:35:45;;;;;;;13.05;6.93;;;;;;;13.84;94.71;100340.38;5091313;28;20102;-28
2022/10/15 02:38:15;;;;;;;12.75;7.80;;;;;;;13.85;93.96;100328.59;5087671;28;20143;-30
2022/10/15 02:40:42;;;;;;;11.23;7.93;;;;;;;14.03;93.19;100344.53;5089091;28;20032;-27
2022/10/15 02:43:09;;;;;;;14.53;7.73;;;;;;;13.86;94.26;100354.38;5089427;28;20016;-28
2022/10/15 02:45:36;;;;;;;20.95;8.00;;;;;;;13.92;93.79;100350.75;5089299;28;20081;-29
2022/10/15 02:48:01;;;;;;;13.13;7.95;;;;;;;13.97;92.45;100348.16;5089444;28;20458;-27
2022/10/15 02:50:26;;;;;;;14.07;8.35;;;;;;;13.91;93.18;100345.63;5089188;28;20024;-28
2022/10/15 02:52:52;;;;;;;13.25;8.05;;;;;;;13.73;93.23;100346.53;5088845;28;20043;-29
2022/10/15 02:55:17;;;;;;;11.88;8.70;;;;;;;13.65;93.60;100345.84;5089232;28;20024;-30
2022/10/15 02:57:43;;;;;;;13.98;8.45;;;;;;;13.50;94.90;100350.84;5089306;28;20028;-29
2022/10/15 03:00:09;;;;;;;12.63;8.60;;;;;;;13.58;94.74;100345.13;5088940;28;20032;-29
2022/10/15 03:02:34;;;;;;;12.95;9.15;;;;;;;13.47;94.74;100340.59;5087433;28;20082;-30
2022/10/15 03:04:59;;;;;;;11.23;8.63;;;;;;;13.55;94.34;100328.72;5089009;28;20563;-28
2022/10/15 03:07:25;;;;;;;13.30;8.23;;;;;;;13.58;94.50;100345.13;5088743;28;20081;-29
2022/10/15 03:09:50;;;;;;;10.65;8.13;;;;;;;13.57;94.87;100330.13;5089291;28;20028;-28
2022/10/15 03:12:16;;;;;;;13.50;8.68;;;;;;;13.46;95.73;100344.31;5088992;28;20093;-29
2022/10/15 03:14:41;;;;;;;11.05;8.27;;;;;;;13.22;97.10;100348.78;5088597;28;20465;-29
2022/10/15 03:17:06;;;;;;;13.45;8.02;;;;;;;13.63;95.40;100355.19;5088997;28;20028;-27
2022/10/15 03:19:32;;;;;;;10.45;8.38;;;;;;;13.68;94.19;100335.72;5087420;28;20024;-29
2022/10/15 03:21:57;;;;;;;11.48;8.40;;;;;;;13.64;94.31;100362.97;5088563;28;20038;-29
2022/10/15 03:24:23;;;;;;;13.93;8.38;;;;;;;13.92;92.96;100355.31;5088439;28;20032;-29
2022/10/15 03:26:48;;;;;;;11.68;7.70;;;;;;;13.73;93.48;100343.88;5088220;28;20039;-34
2022/10/15 03:29:14;;;;;;;12.10;9.20;;;;;;;13.83;93.41;100354.81;5088481;28;20077;-28
2022/10/15 03:31:39;;;;;;;12.10;8.32;;;;;;;13.78;93.59;100346.66;5088528;28;20526;-28
2022/10/15 03:34:04;;;;;;;14.10;8.75;;;;;;;13.79;92.84;100345.59;5088300;28;20028;-30
2022/10/15 03:36:30;;;;;;;12.95;8.82;;;;;;;13.73;92.94;100344.69;5088770;28;20043;-29
2022/10/15 03:38:55;;;;;;;11.48;8.48;;;;;;;13.64;93.54;100351.44;5103811;28;20055;-28
2022/10/15 03:41:21;;;;;;;14.90;9.23;;;;;;;13.54;93.74;100343.16;5108498;28;20024;-29
2022/10/15 03:43:46;;;;;;;16.20;9.32;;;;;;;13.58;94.00;100363.09;5107435;28;20032;-28
2022/10/15 03:46:11;;;;;;;13.65;9.13;;;;;;;13.49;94.48;100362.63;5108192;28;20408;-30
2022/10/15 03:48:37;;;;;;;16.83;9.63;;;;;;;13.38;94.69;100364.22;5107940;28;20038;-29
2022/10/15 03:51:03;;;;;;;12.68;9.70;;;;;;;13.35;94.70;100353.16;5089530;28;20123;-30
2022/10/15 03:53:28;;;;;;;14.23;10.50;;;;;;;13.20;96.02;100357.06;5107973;28;20490;-28
2022/10/15 03:55:53;;;;;;;13.38;9.38;;;;;;;13.34;94.98;100351.50;5108085;28;20115;-32
2022/10/15 03:58:19;;;;;;;16.83;9.52;;;;;;;13.30;95.36;100361.03;5108049;28;20027;-29
2022/10/15 04:00:45;;;;;;;14.30;9.48;;;;;;;13.38;95.33;100361.56;5107510;28;20027;-31
2022/10/15 04:03:11;;;;;;;14.68;8.88;;;;;;;13.42;95.55;100372.59;5089433;28;20038;-30
2022/10/15 04:05:36;;;;;;;14.38;9.23;;;;;;;13.21;96.18;100361.34;5107702;28;20233;-33
2022/10/15 04:08:02;;;;;;;15.07;8.73;;;;;;;13.19;95.82;100366.13;5107586;28;20019;-28
2022/10/15 04:10:28;;;;;;;11.98;8.73;;;;;;;13.37;95.49;100370.63;5106302;28;20138;-28
2022/10/15 04:12:54;;;;;;;11.52;9.10;;;;;;;13.43;94.09;100367.03;5107535;28;20054;-28
2022/10/15 04:15:20;;;;;;;13.73;9.52;;;;;;;13.29;94.72;100360.25;5107733;28;20421;-29
2022/10/15 04:17:45;;;;;;;11.68;9.43;;;;;;;13.32;94.73;100358.97;5107690;28;20092;-28
2022/10/15 04:20:11;;;;;;;20.65;11.35;;;;;;;13.02;95.47;100338.38;5107543;28;20024;-29
2022/10/15 04:22:36;;;;;;;25.30;16.80;;;;;;;13.21;95.04;100350.63;5106978;28;20030;-28
2022/10/15 04:25:02;;;;;;;20.95;14.73;;;;;;;13.13;95.42;100350.97;5107603;28;20479;-28
2022/10/15 04:27:28;;;;;;;27.95;16.85;;;;;;;13.10;95.47;100340.72;5107393;28;20036;-32
2022/10/15 04:29:53;;;;;;;32.55;20.13;;;;;;;13.04;96.01;100337.09;5107625;28;20027;-29
2022/10/15 04:32:19;;;;;;;30.92;19.00;;;;;;;13.22;95.38;100360.31;5107491;28;20188;-28
2022/10/15 04:34:45;;;;;;;30.90;19.17;;;;;;;13.12;94.94;100335.13;5107356;28;20035;-28
2022/10/15 04:37:11;;;;;;;23.88;16.65;;;;;;;13.25;94.18;100338.41;5107054;28;20040;-31
2022/10/15 04:39:37;;;;;;;18.50;12.88;;;;;;;13.30;94.76;100350.34;5089027;28;20035;-27
2022/10/15 04:42:02;;;;;;;18.40;12.25;;;;;;;13.29;94.87;100362.06;5089234;28;20041;-28
2022/10/15 04:44:28;;;;;;;17.55;11.65;;;;;;;13.17;95.70;100362.03;5107136;28;20019;-31
2022/10/15 04:46:53;;;;;;;18.52;12.80;;;;;;;13.13;95.38;100345.59;5107106;28;20034;-27
2022/10/15 04:49:18;;;;;;;19.23;12.32;;;;;;;12.99;96.78;100360.22;5107506;28;20051;-27
2022/10/15 04:51:44;;;;;;;16.63;12.23;;;;;;;12.98;97.07;100363.97;5107301;28;20028;-29
2022/10/15 04:54:09;;;;;;;17.55;12.32;;;;;;;12.80;98.63;100354.91;5108111;28;20542;-30
2022/10/15 04:56:35;;;;;;;16.05;12.35;;;;;;;13.03;97.51;100361.41;5111140;28;20247;-28
2022/10/15 04:59:00;;;;;;;17.27;12.93;;;;;;;13.12;96.75;100365.41;5111580;28;20092;-28
2022/10/15 05:01:26;;;;;;;18.00;13.52;;;;;;;13.13;96.97;100359.00;5093167;28;20024;-28
2022/10/15 05:03:51;;;;;;;19.15;13.15;;;;;;;12.80;98.28;100344.22;5093039;28;20027;-27
2022/10/15 05:06:19;;;;;;;16.20;13.07;;;;;;;12.82;98.22;100349.34;5111053;28;20519;-35
2022/10/15 05:08:45;;;;;;;;;;;;;;;12.90;98.87;100353.56;5111745;28;20083;-30
2022/10/15 05:11:22;;;;;;;17.48;12.25;;;;;;;12.94;99.44;100362.78;5092781;28;19916;-30
2022/10/15 05:13:48;;;;;;;17.65;13.05;;;;;;;12.93;99.25;100366.50;5092939;28;20823;-28
2022/10/15 05:16:25;;;;;;;17.25;13.40;;;;;;;12.88;99.08;100344.97;5110946;28;20027;-30
2022/10/15 05:18:54;;;;;;;17.50;13.40;;;;;;;13.03;99.46;100367.56;5110767;28;20143;-30
2022/10/15 05:21:20;;;;;;;17.95;12.57;;;;;;;12.99;98.55;100352.19;5111205;28;20053;-29
2022/10/15 05:23:46;;;;;;;17.52;13.50;;;;;;;13.19;98.55;100376.03;5111110;28;20032;-28
2022/10/15 05:26:16;;;;;;;17.92;12.98;;;;;;;13.18;98.41;100372.53;5110822;28;20024;-29
2022/10/15 05:28:42;;;;;;;16.95;13.32;;;;;;;13.29;97.94;100378.16;5092041;28;20039;-27
2022/10/15 05:31:13;;;;;;;16.95;13.25;;;;;;;13.12;99.31;100370.75;5110938;28;20096;-32
2022/10/15 05:33:39;;;;;;;17.77;12.90;;;;;;;13.31;98.17;100384.13;5111099;28;20107;-28
2022/10/15 05:36:16;;;;;;;18.27;13.43;;;;;;;13.30;99.30;100383.31;5111056;28;20106;-28
2022/10/15 05:38:42;;;;;;;18.33;13.20;;;;;;;13.42;97.76;100384.16;5091779;28;20059;-28
2022/10/15 05:41:07;;;;;;;19.23;13.75;;;;;;;13.46;98.25;100392.53;5110792;28;20028;-28
2022/10/15 05:43:33;;;;;;;20.67;13.27;;;;;;;13.44;97.96;100365.16;5110579;28;20039;-33
2022/10/15 05:45:58;;;;;;;18.35;12.95;;;;;;;13.55;97.22;100379.63;5110408;28;20019;-28
2022/10/15 05:48:23;;;;;;;20.95;13.95;;;;;;;13.75;96.58;100385.50;5110459;28;20089;-28
2022/10/15 05:50:49;;;;;;;18.73;13.20;;;;;;;13.69;97.53;100396.28;5110304;28;20034;-28
2022/10/15 05:53:14;;;;;;;16.08;12.48;;;;;;;13.66;96.98;100393.03;5110596;28;20475;-29
2022/10/15 05:55:40;;;;;;;14.40;12.05;;;;;;;13.69;97.30;100386.41;5110332;28;20102;-30
2022/10/15 05:58:05;;;;;;;18.80;11.70;;;;;;;14.01;95.94;100405.63;5110400;28;20098;-27
2022/10/15 06:00:31;;;;;;;16.00;12.20;;;;;;;14.13;95.26;100402.97;5109953;28;20030;-27
2022/10/15 06:02:57;;;;;;;15.65;11.18;;;;;;;14.15;94.95;100411.59;5091444;28;20035;-29
2022/10/15 06:05:23;;;;;;;14.18;11.45;;;;;;;14.20;94.16;100408.19;5109822;28;20047;-28
2022/10/15 06:07:48;;;;;;;13.60;10.55;;;;;;;14.02;95.06;100401.13;5109495;28;20475;-30
2022/10/15 06:10:13;;;;;;;14.90;11.15;;;;;;;14.21;94.89;100417.91;5110093;28;20035;-31
2022/10/15 06:12:39;;;;;;;20.38;10.77;;;;;;;14.35;94.34;100403.19;5109762;28;20399;-28
2022/10/15 06:15:05;;;;;;;13.05;9.82;;;;;;;14.49;93.57;100422.53;5109902;28;20028;-29
2022/10/15 06:17:31;;;;;;;13.98;10.32;;;;;;;14.57;92.27;100429.44;5110131;28;20047;-28
2022/10/15 06:19:56;;;;;;;15.05;10.05;;;;;;;14.57;91.46;100395.38;5110035;28;20028;-31
2022/10/15 06:22:22;;;;;;;15.45;11.48;;;;;;;14.79;91.24;100418.88;5109579;28;20499;-29
2022/10/15 06:24:47;;;;;;;17.52;12.77;;;;;;;14.71;91.34;100422.75;5109787;28;20028;-30
2022/10/15 06:27:13;;;;;;;16.85;11.57;;;;;;;14.98;90.37;100431.06;5109730;28;20825;-27
2022/10/15 06:29:39;;;;;;;17.80;11.63;;;;;;;15.01;90.06;100424.41;5089767;28;20031;-28
2022/10/15 06:32:09;;;;;;;12.15;8.77;;;;;;;15.12;86.90;100434.31;5089524;28;20028;-28
2022/10/15 06:34:34;;;;;;;22.75;17.55;;;;;;;14.88;88.50;100430.06;5089115;28;20089;-30
2022/10/15 06:36:59;;;;;;;26.17;20.73;;;;;;;14.81;88.95;100420.28;5089334;28;20036;-28
2022/10/15 06:39:25;;;;;;;15.35;12.02;;;;;;;15.09;89.29;100442.03;5089097;28;20419;-28
2022/10/15 06:41:50;;;;;;;17.25;9.80;;;;;;;15.10;87.33;100439.09;5089096;28;20084;-28
2022/10/15 06:44:16;;;;;;;39.95;25.95;;;;;;;14.96;87.58;100432.38;5088754;28;20099;-30
2022/10/15 06:46:41;;;;;;;12.95;9.88;;;;;;;15.16;88.03;100438.13;5088853;28;20027;-28
2022/10/15 06:49:06;;;;;;;15.90;12.40;;;;;;;15.28;86.37;100438.06;5089224;28;20089;-29
2022/10/15 06:51:32;;;;;;;14.57;11.15;;;;;;;14.97;87.75;100418.69;5088869;28;20496;-29
2022/10/15 06:53:57;;;;;;;13.43;11.32;;;;;;;15.26;87.20;100419.53;5089511;28;20031;-28
2022/10/15 06:56:23;;;;;;;15.75;11.00;;;;;;;15.32;86.43;100441.91;5109227;28;20062;-28
2022/10/15 06:58:48;;;;;;;16.10;13.25;;;;;;;15.33;86.13;100421.25;5090487;28;20059;-28
2022/10/15 07:01:14;;;;;;;15.82;12.75;;;;;;;15.49;83.29;100439.28;5109508;28;20034;-29
2022/10/15 07:03:39;;;;;;;16.85;12.68;;;;;;;15.33;85.07;100429.31;5108953;28;20031;-27
2022/10/15 07:06:06;;;;;;;15.82;10.95;;;;;;;15.44;83.35;100420.34;5087952;28;20055;-29
2022/10/15 07:08:32;;;;;;;12.35;8.20;;;;;;;15.22;83.56;100441.72;5098944;28;20035;-29
2022/10/15 07:10:59;;;;;;;42.15;26.92;;;;;;;15.02;84.15;100429.53;5087821;28;20031;-28
2022/10/15 07:13:25;;;;;;;53.53;29.38;;;;;;;15.17;84.89;100442.44;5090754;28;20477;-29
2022/10/15 07:15:52;;;;;;;23.80;15.77;;;;;;;15.28;84.03;100435.38;5088444;28;20062;-29
2022/10/15 07:18:19;;;;;;;17.10;10.88;;;;;;;15.35;82.53;100443.31;5087195;28;20040;-28
2022/10/15 07:20:46;;;;;;;19.33;11.05;;;;;;;15.15;82.85;100424.94;5069728;28;20032;-29
2022/10/15 07:23:11;;;;;;;15.52;8.80;;;;;;;15.38;82.35;100450.88;5087992;28;20107;-29
2022/10/15 07:25:37;;;;;;;18.92;9.70;;;;;;;15.20;82.24;100427.72;5069729;28;20028;-30
2022/10/15 07:28:03;;;;;;;11.55;8.60;;;;;;;15.38;80.57;100430.19;5087645;28;20032;-27
2022/10/15 07:30:29;;;;;;;10.50;6.90;;;;;;;15.37;80.28;100443.88;5088222;28;20028;-29
2022/10/15 07:32:55;;;;;;;91.75;11.88;;;;;;;15.40;81.39;100449.56;5087582;28;20024;-29
2022/10/15 07:35:21;;;;;;;23.58;16.35;;;;;;;15.70;80.42;100458.44;5088020;28;20039;-29
2022/10/15 07:37:47;;;;;;;18.63;11.68;;;;;;;15.70;78.76;100437.72;5087581;28;20056;-28
2022/10/15 07:40:13;;;;;;;13.57;8.15;;;;;;;15.66;77.47;100441.97;5087688;28;20028;-29
2022/10/15 07:42:39;;;;;;;19.02;9.75;;;;;;;15.78;78.55;100444.63;5069292;28;20028;-28
2022/10/15 07:45:05;;;;;;;12.40;6.07;;;;;;;15.92;78.79;100451.31;5087933;28;20089;-28
2022/10/15 07:47:31;;;;;;;12.10;6.63;;;;;;;15.93;77.31;100442.16;5087817;28;20111;-28
2022/10/15 07:49:56;;;;;;;17.00;11.48;;;;;;;16.28;76.37;100459.91;5087837;28;20024;-30
2022/10/15 07:52:22;;;;;;;11.68;6.70;;;;;;;16.34;72.93;100447.34;5087658;28;20061;-29
2022/10/15 07:54:47;;;;;;;8.65;7.00;;;;;;;16.25;74.24;100444.25;5068945;28;20036;-28
2022/10/15 07:57:13;;;;;;;13.30;9.20;;;;;;;16.50;73.28;100451.88;5087412;28;20039;-30
2022/10/15 07:59:38;;;;;;;12.85;5.70;;;;;;;16.44;72.70;100453.66;5087813;28;20047;-29
2022/10/15 08:02:04;;;;;;;11.95;5.75;;;;;;;16.84;69.47;100451.81;5087598;28;20028;-31
2022/10/15 08:04:29;;;;;;;14.55;7.70;;;;;;;16.95;69.22;100439.28;5087389;28;20472;-30
2022/10/15 08:06:55;;;;;;;9.50;5.07;;;;;;;17.19;67.14;100435.22;5086770;28;20503;-31
2022/10/15 08:09:20;;;;;;;11.55;6.15;;;;;;;17.04;66.72;100451.22;5087012;28;20077;-30
2022/10/15 08:11:46;;;;;;;11.85;4.80;;;;;;;17.20;66.64;100454.91;5068603;28;20055;-29
2022/10/15 08:14:11;;;;;;;9.32;5.05;;;;;;;17.15;66.10;100450.28;5087035;28;20068;-28
2022/10/15 08:16:37;;;;;;;10.20;5.38;;;;;;;17.34;66.61;100458.81;5068411;28;20032;-29
2022/10/15 08:19:03;;;;;;;7.20;4.72;;;;;;;17.22;66.13;100456.28;5087324;28;20499;-30
2022/10/15 08:21:28;;;;;;;12.05;7.03;;;;;;;17.47;65.90;100444.94;5086792;28;20027;-29
2022/10/15 08:23:54;;;;;;;34.47;19.60;;;;;;;17.62;63.64;100446.97;5086847;28;20028;-28
2022/10/15 08:26:19;;;;;;;11.95;7.70;;;;;;;17.87;62.51;100443.69;5086832;28;20039;-28
2022/10/15 08:28:44;;;;;;;15.23;8.98;;;;;;;18.35;62.53;100465.34;5086383;28;20568;-28
2022/10/15 08:31:10;;;;;;;10.10;4.57;;;;;;;18.35;60.85;100459.94;5086930;28;20039;-31
2022/10/15 08:33:36;;;;;;;11.05;5.22;;;;;;;17.97;60.01;100445.66;5086789;28;20028;-29
2022/10/15 08:36:06;;;;;;;12.85;8.80;;;;;;;17.88;61.55;100447.22;5086970;28;20499;-29
2022/10/15 08:38:33;;;;;;;13.07;7.07;;;;;;;18.00;61.70;100464.03;5086722;28;20101;-31
2022/10/15 08:41:00;;;;;;;9.55;5.93;;;;;;;17.68;62.00;100456.72;5086465;28;20020;-29
2022/10/15 08:43:42;;;;;;;14.33;8.07;;;;;;;18.20;61.70;100473.34;5086699;28;20052;-29
2022/10/15 08:46:24;;;;;;;14.77;7.50;;;;;;;18.32;59.17;100473.97;5086715;28;20040;-29
2022/10/15 08:48:54;;;;;;;9.30;4.90;;;;;;;18.35;56.59;100470.75;5052286;28;20032;-29
2022/10/15 08:51:22;;;;;;;8.20;4.80;;;;;;;18.31;58.13;100469.66;5086508;28;20024;-28
2022/10/15 08:54:00;;;;;;;8.18;4.15;;;;;;;18.68;51.43;100457.97;5086589;28;20504;-28
2022/10/15 08:56:32;;;;;;;5.97;2.83;;;;;;;19.00;48.61;100482.19;5068394;28;20024;-28
2022/10/15 08:59:19;;;;;;;4.63;2.03;;;;;;;19.26;48.48;100461.41;5084856;28;20048;-29
2022/10/15 09:01:50;;;;;;;6.57;3.22;;;;;;;19.43;52.14;100476.59;5086204;28;20050;-29
2022/10/15 09:04:27;;;;;;;10.07;5.00;;;;;;;19.72;48.39;100476.16;5085321;28;20036;-29
2022/10/15 09:07:04;;;;;;;9.20;3.90;;;;;;;20.02;51.65;100476.16;5067869;28;20024;-30
2022/10/15 09:09:50;;;;;;;6.63;3.30;;;;;;;20.20;48.40;100468.53;5086327;28;20106;-28
2022/10/15 09:12:45;;;;;;;12.93;6.68;;;;;;;20.36;45.69;100480.16;5086132;28;20285;-30
2022/10/15 09:15:18;;;;;;;8.85;4.53;;;;;;;20.86;46.56;100481.09;5086525;28;20035;-27
2022/10/15 09:17:47;;;;;;;6.32;3.30;;;;;;;20.89;45.89;100477.06;5086243;28;20025;-27
2022/10/15 09:20:31;;;;;;;9.00;2.83;;;;;;;21.23;43.71;100477.97;5086307;28;20036;-28
2022/10/15 09:22:57;;;;;;;18.70;8.95;;;;;;;21.52;43.60;100468.34;5086689;28;20035;-28
2022/10/15 09:25:23;;;;;;;10.52;5.28;;;;;;;21.64;44.44;100488.59;5085926;28;20032;-29
2022/10/15 09:27:51;;;;;;;10.57;3.00;;;;;;;22.02;43.32;100488.81;5086376;28;20396;-30
2022/10/15 09:30:32;;;;;;;8.57;2.95;;;;;;;21.87;42.64;100491.69;5086340;28;20036;-29
2022/10/15 09:33:05;;;;;;;8.23;3.15;;;;;;;21.80;42.44;100485.75;5085873;28;20032;-27
2022/10/15 09:35:38;;;;;;;8.80;3.10;;;;;;;21.48;43.27;100489.78;5086385;28;20119;-28
2022/10/15 09:38:20;;;;;;;8.57;3.70;;;;;;;20.45;45.77;100492.88;5086210;28;20060;-31
2022/10/15 09:41:15;;;;;;;11.25;3.92;;;;;;;20.82;44.67;100497.13;5085831;28;20048;-28
2022/10/15 09:43:44;;;;;;;7.40;3.20;;;;;;;20.14;44.88;100494.00;5088496;28;20056;-29
2022/10/15 09:46:10;;;;;;;11.05;6.10;;;;;;;20.00;45.13;100494.56;5089741;28;20024;-28
2022/10/15 09:48:55;;;;;;;6.28;2.63;;;;;;;20.20;45.99;100484.78;5089591;28;20031;-28
2022/10/15 09:51:28;;;;;;;7.22;3.50;;;;;;;20.00;45.08;100489.16;5078767;28;20044;-30
2022/10/15 09:54:09;;;;;;;8.38;3.63;;;;;;;19.86;48.18;100483.47;5089501;28;20110;-31
2022/10/15 09:56:47;;;;;;;5.95;3.03;;;;;;;20.23;44.51;100465.28;5088054;28;20040;-28
2022/10/15 09:59:18;;;;;;;6.35;3.13;;;;;;;20.31;45.04;100462.03;5089717;28;20592;-28
2022/10/15 10:02:01;;;;;;;7.18;4.03;;;;;;;20.67;44.63;100461.94;5089736;28;20032;-29
2022/10/15 10:04:30;;;;;;;7.32;2.67;;;;;;;20.47;44.76;100455.50;5070742;28;20032;-28
2022/10/15 10:06:59;;;;;;;5.38;2.35;;;;;;;20.52;44.50;100465.50;5089394;28;20032;-29
2022/10/15 10:09:30;;;;;;;5.38;2.78;;;;;;;20.83;45.54;100458.09;5089596;28;20038;-29
2022/10/15 10:12:00;;;;;;;5.85;2.70;;;;;;;20.74;42.71;100469.78;5089625;28;20494;-32
2022/10/15 10:14:52;;;;;;;5.75;2.35;;;;;;;20.55;45.07;100464.13;5089175;28;20169;-27
2022/10/15 10:17:20;;;;;;;4.47;2.17;;;;;;;20.45;43.98;100463.09;5089628;28;20039;-30
2022/10/15 10:20:00;;;;;;;;;;;;;;;20.20;43.76;100457.69;5089607;28;20080;-28
2022/10/15 10:22:26;;;;;;;7.28;3.00;;;;;;;20.18;45.88;100457.16;5089182;28;19907;-29
2022/10/15 10:24:51;;;;;;;5.63;2.60;;;;;;;20.77;42.65;100442.13;5070495;28;20035;-27
2022/10/15 10:27:28;;;;;;;5.28;2.47;;;;;;;21.27;40.79;100448.38;5088935;28;20028;-29
2022/10/15 10:30:00;;;;;;;9.25;4.10;;;;;;;21.83;39.83;100431.69;5071178;28;20024;-28
2022/10/15 10:32:29;;;;;;;4.88;2.88;;;;;;;22.40;38.68;100447.47;5088952;28;20399;-28
2022/10/15 10:34:55;;;;;;;9.07;3.75;;;;;;;22.67;38.66;100433.28;5088724;28;20028;-28
2022/10/15 10:37:21;;;;;;;6.35;2.58;;;;;;;22.80;35.67;100429.88;5088540;28;20664;-29
2022/10/15 10:39:52;;;;;;;6.43;2.40;;;;;;;23.06;36.90;100440.44;5070494;28;20035;-28
2022/10/15 10:42:21;;;;;;;4.40;2.20;;;;;;;23.26;34.28;100437.41;5088929;28;20028;-29
2022/10/15 10:44:46;;;;;;;4.50;2.25;;;;;;;22.91;36.06;100427.03;5088395;28;20545;-29
2022/10/15 10:47:12;;;;;;;4.38;2.35;;;;;;;22.74;37.52;100428.31;5088638;28;20020;-28
2022/10/15 10:49:43;;;;;;;3.58;2.03;;;;;;;23.15;35.41;100422.34;5088390;28;20035;-28
2022/10/15 10:52:36;;;;;;;6.43;2.33;;;;;;;23.02;35.66;100433.97;5069915;28;20535;-28
2022/10/15 10:55:15;;;;;;;4.22;2.10;;;;;;;22.26;37.11;100412.84;5081780;28;20032;-28
2022/10/15 10:57:47;;;;;;;5.60;2.70;;;;;;;22.59;37.71;100417.63;5088283;28;20416;-30
2022/10/15 11:00:41;;;;;;;6.28;2.28;;;;;;;22.46;36.91;100416.44;5088301;28;20500;-28
2022/10/15 11:03:25;;;;;;;5.88;3.00;;;;;;;22.06;38.55;100413.81;5088507;28;20113;-28
2022/10/15 11:06:00;;;;;;;7.78;2.90;;;;;;;21.90;38.47;100417.78;5088418;28;20100;-28
2022/10/15 11:08:31;;;;;;;5.63;2.50;;;;;;;21.85;38.39;100396.13;5088372;28;20024;-28
2022/10/15 11:11:11;;;;;;;4.07;2.40;;;;;;;22.38;37.04;100414.34;5086511;28;20035;-31
2022/10/15 11:13:55;;;;;;;8.43;2.28;;;;;;;22.09;37.59;100407.03;5088135;28;20028;-28
2022/10/15 11:16:41;;;;;;;7.68;2.15;;;;;;;21.65;37.57;100397.91;5088373;28;20067;-29
2022/10/15 11:19:17;;;;;;;6.15;2.08;;;;;;;21.86;39.01;100403.16;5088104;28;20024;-31
2022/10/15 11:21:58;;;;;;;4.22;1.92;;;;;;;21.33;38.02;100406.56;5088286;28;20031;-29
2022/10/15 11:24:41;;;;;;;4.97;2.15;;;;;;;21.51;38.16;100405.09;5088114;28;20028;-29
2022/10/15 11:27:13;;;;;;;4.28;2.20;;;;;;;22.03;38.18;100402.75;5087802;28;20051;-31